Flight Track Log - Related Links

Times and Time Zones

All times are in EDT time to prevent confusion due to time zone crossing. See the N866NN flight status page for this flight to view local times or setup timezone preferences in your user account.

Time Position Orientation Groundspeed Altitude Reporting Facility
EDT Latitude Longitude Course Direction KTS MPH feet Rate Location/Type
Mon 03:02:32 PM 25.8272 -80.3416 110° East  Level FlightAware Approximate
Mon 03:02:46 PM 25.8006 -80.2606 341° North 105 121 900  Level Miami Center
Mon 03:08:00 PM 26.0200 -80.3456 284° West 265 305 10,600 1,813 Climbing Miami Center
Mon 03:09:00 PM 26.0425 -80.4478 284° West 300 345 12,200 2,300 Climbing Miami Center
Mon 03:10:00 PM 26.0669 -80.5572 293° West 339 390 15,200 2,850 Climbing Miami Center
Mon 03:11:00 PM 26.1061 -80.6603 319° Northwest 359 413 17,900 2,400 Climbing Miami Center
Mon 03:12:00 PM 26.1875 -80.7392 317° Northwest 372 428 20,000 2,150 Climbing Miami Center
Mon 03:13:00 PM 26.2708 -80.8253 318° Northwest 391 450 22,200 2,000 Climbing Miami Center
Mon 03:14:00 PM 26.3542 -80.9094 317° Northwest 405 466 24,000 1,750 Climbing Miami Center
Mon 03:15:00 PM 26.4394 -80.9981 319° Northwest 416 479 25,700 1,000 Climbing Miami Center
Mon 03:16:00 PM 26.5289 -81.0847 317° Northwest 416 479 26,000 150 Climbing Miami Center
Mon 03:17:00 PM 26.6058 -81.1642 318° Northwest 416 479 26,000 150 Level Miami Center
Mon 03:18:00 PM 26.6931 -81.2533 317° Northwest 421 484 26,300 400 Climbing Miami Center
Mon 03:19:00 PM 26.7881 -81.3522 307° West 426 490 26,800 700 Climbing Miami Center
Mon 03:20:00 PM 26.8600 -81.4575 299° West 420 483 27,700 900 Climbing Miami Center
Mon 03:21:00 PM 26.9167 -81.5739 299° West 420 483 28,600 950 Climbing Miami Center
Mon 03:22:00 PM 26.9697 -81.6808 299° West 431 496 29,600 1,400 Climbing Miami Center
Mon 03:23:00 PM 27.0283 -81.7975 290° West 431 496 31,400 1,700 Climbing Miami Center
Mon 03:24:00 PM 27.0717 -81.9344 286° West 431 496 33,000 1,450 Climbing Miami Center
Mon 03:25:00 PM 27.1047 -82.0619 286° West 431 496 34,300 1,250 Climbing Miami Center
Mon 03:26:00 PM 27.1375 -82.1894 288° West 426 490 35,500 850 Climbing Miami Center
Mon 03:27:00 PM 27.1744 -82.3169 286° West 426 490 36,000 200 Climbing Miami Center
Mon 03:28:00 PM 27.2053 -82.4397 284° West 426 490 35,900 -50 Descending Miami Center
Mon 03:29:00 PM 27.2286 -82.5414 285° West 426 490 35,900 50 Level Miami Center
Mon 03:30:00 PM 27.2642 -82.6925 286° West 418 481 36,000 50 Climbing Miami Center
Mon 03:31:00 PM 27.2931 -82.8061 287° West 418 481 36,000  Level Miami Center
Mon 03:32:00 PM 27.3308 -82.9481 285° West 423 487 36,000  Level Miami Center
Mon 03:33:00 PM 27.3611 -83.0736 286° West 423 487 36,000  Level Miami Center
Mon 03:34:00 PM 27.3931 -83.2014 286° West 423 487 36,000 -50 Level Miami Center
Mon 03:35:00 PM 27.4250 -83.3272 285° West 423 487 35,900  Descending Miami Center
Mon 03:36:00 PM 27.4564 -83.4597 285° West 423 487 36,000 50 Climbing Miami Center
Mon 03:37:00 PM 27.4861 -83.5856 285° West 423 487 36,000  Level Miami Center
Mon 03:38:00 PM 27.5175 -83.7158 285° West 423 487 36,000  Level Miami Center
Mon 03:39:00 PM 27.5489 -83.8442 286° West 423 487 36,000  Level Miami Center
Mon 03:42:00 PM 27.6442 -84.2317 285° West 423 487 36,000  Level Miami Center
Mon 03:43:00 PM 27.6753 -84.3600 289° West 423 487 36,000  Level Miami Center
Mon 03:43:35 PM 27.6983 -84.4369 282° West 423 487 36,000  Level Jacksonville Center
Mon 03:44:35 PM 27.7217 -84.5661 281° West 423 487 36,000 -50 Level Jacksonville Center
Mon 03:45:34 PM 27.7431 -84.6956 287° West 423 487 35,900  Descending Jacksonville Center
Mon 03:47:35 PM 27.8103 -84.9406 283° West 429 494 36,000  Climbing Jacksonville Center
Mon 03:48:34 PM 27.8372 -85.0703 287° West 429 494 35,900  Descending Jacksonville Center
Mon 03:49:35 PM 27.8706 -85.1978 285° West 429 494 36,000  Climbing Jacksonville Center
Mon 03:50:34 PM 27.9017 -85.3300 291° West 429 494 35,900  Descending Jacksonville Center
Mon 03:51:34 PM 27.9411 -85.4483 288° West 429 494 36,000 50 Climbing Jacksonville Center
Mon 03:52:34 PM 27.9781 -85.5761 290° West 423 487 36,000 -50 Level Jacksonville Center
Mon 03:53:35 PM 28.0172 -85.6994 289° West 423 487 35,900  Descending Jacksonville Center
Mon 03:54:35 PM 28.0558 -85.8297 289° West 429 494 36,000 50 Climbing Jacksonville Center
Mon 03:55:34 PM 28.0928 -85.9486 288° West 429 494 36,000  Level Jacksonville Center
Mon 03:57:35 PM 28.1678 -86.2075 289° West 430 495 36,000  Level Jacksonville Center
Mon 03:58:34 PM 28.2061 -86.3358 289° West 429 494 36,000 -50 Level Jacksonville Center
Mon 03:59:34 PM 28.2444 -86.4619 289° West 429 494 35,900  Descending Jacksonville Center
Mon 04:00:34 PM 28.2825 -86.5858 287° West 424 488 36,000 50 Climbing Jacksonville Center
Mon 04:01:34 PM 28.3164 -86.7119 289° West 429 494 36,000  Level Jacksonville Center
Mon 04:02:34 PM 28.3564 -86.8408 288° West 429 494 36,000  Level Jacksonville Center
Mon 04:03:34 PM 28.3942 -86.9697 287° West 423 487 36,000  Level Jacksonville Center
Mon 04:04:34 PM 28.4278 -87.0914 288° West 428 493 36,000  Level Jacksonville Center
Mon 04:05:34 PM 28.4650 -87.2228 288° West 428 493 36,000  Level Jacksonville Center
Mon 04:06:34 PM 28.5006 -87.3447 288° West 428 493 36,000  Level Jacksonville Center
Mon 04:07:34 PM 28.5397 -87.4789 276° West 428 493 36,000  Level Jacksonville Center
Mon 04:08:34 PM 28.5486 -87.5783 294° West 433 498 36,000  Level Jacksonville Center
Mon 04:10:03 PM 28.6361 -87.8050 286° West 434 499 36,000  Level Houston Center
Mon 04:11:03 PM 28.6667 -87.9269 288° West 424 488 36,000  Level Houston Center
Mon 04:12:03 PM 28.7033 -88.0536 280° West 419 482 36,000  Level Houston Center
Mon 04:13:03 PM 28.7233 -88.1808 277° West 414 476 36,000 -50 Level Houston Center
Mon 04:14:03 PM 28.7369 -88.3106 277° West 414 476 35,900 -50 Descending Houston Center
Mon 04:15:03 PM 28.7506 -88.4406 274° West 419 482 35,900 50 Level Houston Center
Mon 04:16:03 PM 28.7581 -88.5753 273° West 425 489 36,000  Climbing Houston Center
Mon 04:17:03 PM 28.7650 -88.7103 275° West 425 489 35,900  Descending Houston Center
Mon 04:18:03 PM 28.7742 -88.8428 269° West 420 483 36,000 50 Climbing Houston Center
Mon 04:19:03 PM 28.7725 -88.9708 253° West 420 483 36,000 -50 Level Houston Center
Mon 04:20:03 PM 28.7375 -89.1042 254° West 420 483 35,900  Descending Houston Center
Mon 04:21:03 PM 28.7044 -89.2331 254° West 420 483 36,000  Climbing Houston Center
Mon 04:22:03 PM 28.6731 -89.3592 254° West 420 483 35,900  Descending Houston Center
Mon 04:23:03 PM 28.6397 -89.4878 253° West 425 489 36,000 50 Climbing Houston Center
Mon 04:24:03 PM 28.6061 -89.6139 255° West 425 489 36,000  Level Houston Center
Mon 04:25:03 PM 28.5747 -89.7447 251° West 425 489 36,000  Level Houston Center
Mon 04:26:03 PM 28.5367 -89.8683 247° West 419 482 36,000 -50 Level Houston Center
Mon 04:27:03 PM 28.4900 -89.9919 248° West 419 482 35,900  Descending Houston Center
Mon 04:28:03 PM 28.4456 -90.1178 247° West 425 489 36,000 50 Climbing Houston Center
Mon 04:29:03 PM 28.4011 -90.2392 249° West 431 496 36,000  Level Houston Center
Mon 04:30:03 PM 28.3583 -90.3647 251° West 431 496 36,000 -50 Level Houston Center
Mon 04:31:03 PM 28.3219 -90.4881 287° West 431 496 35,900 -50 Descending Houston Center
Mon 04:32:03 PM 28.3564 -90.6197 304° West 402 463 35,900 50 Level Houston Center
Mon 04:33:03 PM 28.4197 -90.7278 304° West 411 473 36,000  Climbing Houston Center
Mon 04:34:03 PM 28.4853 -90.8383 305° West 403 464 35,900 -50 Descending Houston Center
Mon 04:35:03 PM 28.5506 -90.9442 304° West 411 473 35,900  Level Houston Center
Mon 04:36:03 PM 28.6097 -91.0433 304° West 416 479 35,900 50 Level Houston Center
Mon 04:37:03 PM 28.6747 -91.1519 305° West 416 479 36,000 50 Climbing Houston Center
Mon 04:38:03 PM 28.7378 -91.2558 281° West 416 479 36,000  Level Houston Center
Mon 04:39:03 PM 28.7611 -91.3886 258° West 405 466 36,000  Level Houston Center
Mon 04:40:20 PM 28.7261 -91.5778 266° West 423 487 36,000  Level FlightAware ADS-B
Mon 04:40:32 PM 28.7245 -91.6041 275° West 419 482 36,000  Level FlightAware ADS-B
Mon 04:40:45 PM 28.7267 -91.6334 281° West 416 479 36,000  Level FlightAware ADS-B
Mon 04:40:51 PM 28.7289 -91.6458 286° West 415 478 36,000  Level FlightAware ADS-B
Mon 04:40:59 PM 28.7334 -91.6638 293° West 414 476 36,000  Level FlightAware ADS-B
Mon 04:41:10 PM 28.7410 -91.6845 308° West 414 476 36,000  Level FlightAware ADS-B
Mon 04:41:56 PM 28.7959 -91.7637 176° South 415 478 36,000 -113 Level FlightAware ADS-B
Mon 04:42:03 PM 28.7886 -91.7631 314° West 396 456 35,900  Descending Houston Center
Mon 04:43:03 PM 28.8678 -91.8581 314° West 397 457 36,000 40 Climbing Houston Center
Mon 04:44:33 PM 29.0004 -92.0149 313° West 414 476 36,000  Level FlightAware ADS-B
Mon 04:45:30 PM 29.0734 -92.1058 314° West 414 476 36,000  Level FlightAware ADS-B
Mon 04:46:21 PM 29.1410 -92.1863 323° Northwest 416 479 36,000  Level FlightAware ADS-B
Mon 04:46:53 PM 29.1900 -92.2287 323° Northwest 417 480 36,000  Level FlightAware ADS-B
Mon 04:47:50 PM 29.2791 -92.3049 323° Northwest 417 480 36,000  Level FlightAware ADS-B
Mon 04:48:20 PM 29.3255 -92.3448 323° Northwest 416 479 36,000  Level FlightAware ADS-B
Mon 04:49:01 PM 29.3879 -92.3986 323° Northwest 414 476 36,000  Level FlightAware ADS-B
Mon 04:49:24 PM 29.4232 -92.4294 318° Northwest 412 474 36,000  Level FlightAware ADS-B
Mon 04:49:30 PM 29.4307 -92.4371 295° West 410 472 36,000  Level FlightAware ADS-B
Mon 04:50:05 PM 29.4588 -92.5059 274° West 411 473 36,000  Level FlightAware ADS-B
Mon 04:50:12 PM 29.4596 -92.5196 273° West 412 474 36,000 -324 Level FlightAware ADS-B
Mon 04:50:42 PM 29.4627 -92.5852 273° West 407 468 35,800 -885 Descending FlightAware ADS-B
Mon 04:51:13 PM 29.4657 -92.6495 273° West 396 456 35,100 -1,377 Descending FlightAware ADS-B
Mon 04:51:43 PM 29.4686 -92.7137 273° West 411 473 34,400 -1,500 Descending FlightAware ADS-B
Mon 04:52:13 PM 29.4716 -92.7794 273° West 412 474 33,600 -1,500 Descending FlightAware ADS-B
Mon 04:52:43 PM 29.4745 -92.8457 273° West 422 486 32,900 -1,475 Descending FlightAware ADS-B
Mon 04:53:14 PM 29.4776 -92.9153 273° West 430 495 32,100 -1,574 Descending FlightAware ADS-B
Mon 04:53:44 PM 29.4807 -92.9853 273° West 429 494 31,300 -1,545 Descending FlightAware ADS-B
Mon 04:54:20 PM 29.4841 -93.0649 273° West 424 488 30,400 -1,522 Descending FlightAware ADS-B
Mon 04:54:51 PM 29.4872 -93.1340 273° West 426 490 29,600 -1,574 Descending FlightAware ADS-B
Mon 04:55:21 PM 29.4901 -93.2023 273° West 421 484 28,800 -1,574 Descending FlightAware ADS-B
Mon 04:55:52 PM 29.4930 -93.2691 273° West 416 479 28,000 -1,770 Descending FlightAware ADS-B
Mon 04:56:22 PM 29.4958 -93.3358 273° West 410 472 27,000 -1,900 Descending FlightAware ADS-B
Mon 04:56:52 PM 29.4983 -93.4005 273° West 404 465 26,100 -1,869 Descending FlightAware ADS-B
Mon 04:57:23 PM 29.5012 -93.4675 272° West 404 465 25,100 -1,967 Descending FlightAware ADS-B
Mon 04:57:53 PM 29.5036 -93.5315 273° West 398 458 24,100 -1,935 Descending FlightAware ADS-B
Mon 04:58:25 PM 29.5063 -93.5973 272° West 396 456 23,100 -1,875 Descending FlightAware ADS-B
Mon 04:58:57 PM 29.5087 -93.6642 273° West 393 452 22,100 -1,935 Descending FlightAware ADS-B
Mon 04:59:27 PM 29.5111 -93.7265 273° West 386 444 21,100 -1,967 Descending FlightAware ADS-B
Mon 04:59:58 PM 29.5135 -93.7885 273° West 381 438 20,100 -1,869 Descending FlightAware ADS-B
Mon 05:00:28 PM 29.5159 -93.8495 273° West 377 434 19,200 -1,900 Descending FlightAware ADS-B
Mon 05:00:58 PM 29.5182 -93.9094 273° West 375 432 18,200 -1,895 Descending FlightAware ADS-B
Mon 05:01:25 PM 29.5202 -93.9615 272° West 374 430 17,400 -1,789 Descending FlightAware ADS-B
Mon 05:01:55 PM 29.5223 -94.0207 272° West 368 423 16,500 -1,900 Descending FlightAware ADS-B
Mon 05:02:25 PM 29.5243 -94.0793 272° West 365 420 15,500 -2,000 Descending FlightAware ADS-B
Mon 05:02:55 PM 29.5262 -94.1374 272° West 362 417 14,500 -1,900 Descending FlightAware ADS-B
Mon 05:03:25 PM 29.5280 -94.1958 272° West 361 415 13,600 -1,355 Descending FlightAware ADS-B
Mon 05:03:57 PM 29.5302 -94.2553 273° West 349 402 13,100 -476 Descending FlightAware ADS-B
Mon 05:04:28 PM 29.5325 -94.3132 275° West 344 396 13,100  Level FlightAware ADS-B
Mon 05:04:37 PM 29.5337 -94.3291 281° West 343 395 13,100  Level FlightAware ADS-B
Mon 05:04:44 PM 29.5358 -94.3418 287° West 341 392 13,100  Level FlightAware ADS-B
Mon 05:04:55 PM 29.5405 -94.3593 293° West 339 390 13,100 -632 Level FlightAware ADS-B
Mon 05:05:03 PM 29.5454 -94.3728 296° West 337 388 12,900 -1,737 Descending FlightAware ADS-B
Mon 05:05:33 PM 29.5660 -94.4207 296° West 332 382 12,000 -1,900 Descending FlightAware ADS-B
Mon 05:06:03 PM 29.5863 -94.4679 296° West 328 377 11,000 -1,475 Descending FlightAware ADS-B
Mon 05:06:34 PM 29.6061 -94.5145 296° West 312 359 10,500 -885 Descending FlightAware ADS-B
Mon 05:07:04 PM 29.6247 -94.5582 296° West 292 336 10,100 -933 Descending FlightAware ADS-B
Mon 05:07:19 PM 29.6337 -94.5790 296° West 287 330 9,800 -1,161 Descending FlightAware ADS-B
Mon 05:07:35 PM 29.6424 -94.5999 296° West 283 326 9,500 -1,355 Descending FlightAware ADS-B
Mon 05:07:50 PM 29.6512 -94.6206 296° West 282 325 9,100 -1,400 Descending FlightAware ADS-B
Mon 05:08:05 PM 29.6598 -94.6408 296° West 280 322 8,800 -1,500 Descending FlightAware ADS-B
Mon 05:08:18 PM 29.6675 -94.6587 296° West 280 322 8,400 -1,448 Descending FlightAware ADS-B
Mon 05:08:34 PM 29.6762 -94.6792 296° West 279 321 8,100 -1,355 Descending FlightAware ADS-B
Mon 05:08:49 PM 29.6848 -94.6995 296° West 278 320 7,700 -1,600 Descending FlightAware ADS-B
Mon 05:09:04 PM 29.6933 -94.7196 296° West 276 318 7,300 -1,355 Descending FlightAware ADS-B
Mon 05:09:20 PM 29.7019 -94.7400 296° West 276 318 7,000 -1,313 Descending FlightAware ADS-B
Mon 05:09:36 PM 29.7108 -94.7610 296° West 277 319 6,600 -1,548 Descending FlightAware ADS-B
Mon 05:09:51 PM 29.7192 -94.7808 296° West 277 319 6,200 -1,000 Descending FlightAware ADS-B
Mon 05:10:06 PM 29.7278 -94.8010 296° West 275 316 6,100 -200 Descending FlightAware ADS-B
Mon 05:10:21 PM 29.7364 -94.8212 296° West 273 314 6,100  Level FlightAware ADS-B
Mon 05:10:37 PM 29.7452 -94.8419 296° West 272 313 6,100  Level FlightAware ADS-B
Mon 05:10:52 PM 29.7534 -94.8613 296° West 271 312 6,100  Level FlightAware ADS-B
Mon 05:11:07 PM 29.7617 -94.8810 296° West 272 313 6,100  Level FlightAware ADS-B
Mon 05:11:23 PM 29.7702 -94.9010 296° West 272 313 6,100  Level FlightAware ADS-B
Mon 05:11:38 PM 29.7784 -94.9206 296° West 273 314 6,100  Level FlightAware ADS-B
Mon 05:11:53 PM 29.7866 -94.9400 296° West 271 312 6,100  Level FlightAware ADS-B
Mon 05:12:08 PM 29.7951 -94.9600 296° West 271 312 6,100  Level FlightAware ADS-B
Mon 05:12:23 PM 29.8035 -94.9799 296° West 275 316 6,100  Level FlightAware ADS-B
Mon 05:12:39 PM 29.8120 -95.0000 296° West 274 315 6,100  Level FlightAware ADS-B
Mon 05:12:54 PM 29.8204 -95.0202 296° West 273 314 6,100  Level FlightAware ADS-B
Mon 05:13:09 PM 29.8288 -95.0401 296° West 272 313 6,100  Level FlightAware ADS-B
Mon 05:13:26 PM 29.8372 -95.0599 296° West 273 314 6,100  Level FlightAware ADS-B
Mon 05:13:42 PM 29.8426 -95.0728 296° West 274 315 6,100  Level FlightAware ADS-B
Mon 05:13:47 PM 29.8450 -95.0786 296° West 275 316 6,100  Level FlightAware ADS-B
Mon 05:14:03 PM 29.8540 -95.1001 296° West 275 316 6,100  Level FlightAware ADS-B
Mon 05:14:08 PM 29.8609 -95.1166 296° West 274 315 6,100  Level FlightAware ADS-B
Mon 05:14:23 PM 29.8694 -95.1367 296° West 275 316 6,100  Level FlightAware ADS-B
Mon 05:14:38 PM 29.8780 -95.1572 296° West 275 316 6,100  Level FlightAware ADS-B
Mon 05:14:54 PM 29.8866 -95.1777 295° West 274 315 6,100  Level FlightAware ADS-B
Mon 05:15:05 PM 29.8925 -95.1920 293° West 274 315 6,100  Level FlightAware ADS-B
Mon 05:15:09 PM 29.8944 -95.1972 288° West 274 315 6,100  Level FlightAware ADS-B
Mon 05:15:12 PM 29.8958 -95.2021 285° West 275 316 6,100  Level FlightAware ADS-B
Mon 05:15:17 PM 29.8974 -95.2089 280° West 276 318 6,100  Level FlightAware ADS-B
Mon 05:15:20 PM 29.8982 -95.2139 278° West 276 318 6,100  Level FlightAware ADS-B
Mon 05:15:24 PM 29.8989 -95.2199 275° West 277 319 6,100  Level FlightAware ADS-B
Mon 05:15:27 PM 29.8992 -95.2242 271° West 277 319 6,100  Level FlightAware ADS-B
Mon 05:15:32 PM 29.8993 -95.2312 270° West 276 318 6,100  Level FlightAware ADS-B
Mon 05:15:58 PM 29.8994 -95.2671 270° West 267 307 6,100  Level FlightAware ADS-B
Mon 05:16:13 PM 29.8995 -95.2867 271° West 239 275 6,100  Level FlightAware ADS-B
Mon 05:16:29 PM 29.8997 -95.3067 270° West 234 269 6,100  Level FlightAware ADS-B
Mon 05:16:58 PM 29.8999 -95.3422 270° West 234 269 6,100  Level FlightAware ADS-B
Mon 05:17:19 PM 29.9000 -95.3686 271° West 233 268 6,100  Level FlightAware ADS-B
Mon 05:17:35 PM 29.9002 -95.3888 270° West 233 268 6,100  Level FlightAware ADS-B
Mon 05:17:51 PM 29.9003 -95.4076 270° West 232 267 6,100  Level FlightAware ADS-B
Mon 05:18:06 PM 29.9003 -95.4274 270° West 234 269 6,100  Level FlightAware ADS-B
Mon 05:18:20 PM 29.9003 -95.4443 271° West 233 268 6,100  Level FlightAware ADS-B
Mon 05:18:31 PM 29.9004 -95.4576 270° West 236 272 6,100  Level FlightAware ADS-B
Mon 05:18:49 PM 29.9005 -95.4802 270° West 236 272 6,100  Level FlightAware ADS-B
Mon 05:19:04 PM 29.9006 -95.4993 271° West 238 274 6,100  Level FlightAware ADS-B
Mon 05:19:17 PM 29.9008 -95.5165 270° West 237 273 6,100  Level FlightAware ADS-B
Mon 05:19:32 PM 29.9008 -95.5353 270° West 236 272 6,100  Level FlightAware ADS-B
Mon 05:19:42 PM 29.9008 -95.5476 270° West 233 268 6,100  Level FlightAware ADS-B
Mon 05:19:54 PM 29.9008 -95.5617 270° West 232 267 6,100 -214 Level FlightAware ADS-B
Mon 05:20:10 PM 29.9009 -95.5824 271° West 232 267 6,000 -968 Descending FlightAware ADS-B
Mon 05:20:25 PM 29.9011 -95.6013 270° West 236 272 5,600 -1,548 Descending FlightAware ADS-B
Mon 05:20:41 PM 29.9011 -95.6205 270° West 241 277 5,200 -968 Descending FlightAware ADS-B
Mon 05:20:56 PM 29.9012 -95.6405 270° West 234 269 5,100 -240 Descending FlightAware ADS-B
Mon 05:21:06 PM 29.9012 -95.6523 273° West 233 268 5,100  Level FlightAware ADS-B
Mon 05:21:09 PM 29.9014 -95.6566 279° West 233 268 5,100  Level FlightAware ADS-B
Mon 05:21:13 PM 29.9019 -95.6604 286° West 233 268 5,100  Level FlightAware ADS-B
Mon 05:21:16 PM 29.9029 -95.6644 292° West 234 269 5,100  Level FlightAware ADS-B
Mon 05:21:19 PM 29.9041 -95.6679 297° West 234 269 5,100  Level FlightAware ADS-B
Mon 05:21:22 PM 29.9057 -95.6716 306° West 236 272 5,100  Level FlightAware ADS-B
Mon 05:21:26 PM 29.9083 -95.6758 313° West 237 273 5,100  Level FlightAware ADS-B
Mon 05:21:29 PM 29.9106 -95.6786 319° Northwest 237 273 5,100  Level FlightAware ADS-B
Mon 05:21:33 PM 29.9133 -95.6813 328° Northwest 236 272 5,100  Level FlightAware ADS-B
Mon 05:21:37 PM 29.9175 -95.6843 340° North 236 272 5,100  Level FlightAware ADS-B
Mon 05:21:43 PM 29.9234 -95.6868 349° North 233 268 5,100  Level FlightAware ADS-B
Mon 05:21:49 PM 29.9295 -95.6881 353° North 234 269 5,100  Level FlightAware ADS-B
Mon 05:21:57 PM 29.9384 -95.6893 354° North 235 270 5,100  Level FlightAware ADS-B
Mon 05:22:10 PM 29.9522 -95.6911 354° North 236 272 5,100  Level FlightAware ADS-B
Mon 05:22:20 PM 29.9638 -95.6926 357° North 233 268 5,100  Level FlightAware ADS-B
Mon 05:22:23 PM 29.9671 -95.6928 North 232 267 5,100  Level FlightAware ADS-B
Mon 05:22:27 PM 29.9704 -95.6926 10° North 231 266 5,100  Level FlightAware ADS-B
Mon 05:22:31 PM 29.9751 -95.6916 20° North 232 267 5,100  Level FlightAware ADS-B
Mon 05:22:35 PM 29.9794 -95.6898 29° Northeast 231 266 5,100  Level FlightAware ADS-B
Mon 05:22:39 PM 29.9827 -95.6877 35° Northeast 229 264 5,100  Level FlightAware ADS-B
Mon 05:22:42 PM 29.9860 -95.6850 42° Northeast 229 264 5,100  Level FlightAware ADS-B
Mon 05:22:46 PM 29.9887 -95.6822 49° Northeast 228 262 5,100  Level FlightAware ADS-B
Mon 05:22:49 PM 29.9908 -95.6794 52° Northeast 229 264 5,100  Level FlightAware ADS-B
Mon 05:22:55 PM 29.9949 -95.6734 57° Northeast 230 265 5,100  Level FlightAware ADS-B
Mon 05:23:05 PM 30.0007 -95.6632 66° East 229 264 5,100  Level FlightAware ADS-B
Mon 05:23:08 PM 30.0022 -95.6594 72° East 227 261 5,100  Level FlightAware ADS-B
Mon 05:23:12 PM 30.0033 -95.6556 80° East 225 259 5,100 -750 Level FlightAware ADS-B
Mon 05:23:16 PM 30.0040 -95.6509 89° East 225 259 5,000 -750 Descending FlightAware ADS-B
Mon 05:23:20 PM 30.0041 -95.6454 98° East 224 258 5,000 -667 Level FlightAware ADS-B
Mon 05:23:25 PM 30.0035 -95.6403 106° East 224 258 4,900 -1,500 Descending FlightAware ADS-B
Mon 05:23:28 PM 30.0025 -95.6364 113° Southeast 224 258 4,800 -1,500 Descending FlightAware ADS-B
Mon 05:23:33 PM 30.0004 -95.6308 121° Southeast 225 259 4,700 -1,333 Descending FlightAware ADS-B
Mon 05:23:37 PM 29.9984 -95.6270 120° Southeast 225 259 4,600 -1,800 Descending FlightAware ADS-B
Mon 05:23:43 PM 29.9952 -95.6206 109° East 224 258 4,400 -1,200 Descending FlightAware ADS-B
Mon 05:23:47 PM 29.9938 -95.6158 102° East 223 257 4,400 -857 Level FlightAware ADS-B
Mon 05:23:50 PM 29.9931 -95.6119 96° East 222 255 4,300 -857 Descending FlightAware ADS-B
Mon 05:23:54 PM 29.9927 -95.6072 92° East 220 253 4,300 -750 Level FlightAware ADS-B
Mon 05:23:58 PM 29.9926 -95.6035 90° East 218 251 4,200 -667 Descending FlightAware ADS-B
Mon 05:24:12 PM 29.9926 -95.5874 88° East 213 245 4,100 -923 Descending FlightAware ADS-B
Mon 05:24:24 PM 29.9929 -95.5741 89° East 214 246 3,800 -1,333 Descending FlightAware ADS-B
Mon 05:24:39 PM 29.9931 -95.5563 90° East 215 247 3,500 -1,161 Descending FlightAware ADS-B
Mon 05:24:55 PM 29.9932 -95.5378 90° East 213 245 3,200 -1,091 Descending FlightAware ADS-B
Mon 05:25:12 PM 29.9932 -95.5201 90° East 202 232 2,900 -1,125 Descending FlightAware ADS-B
Mon 05:25:27 PM 29.9932 -95.5039 90° East 199 229 2,600 -968 Descending FlightAware ADS-B
Mon 05:25:43 PM 29.9932 -95.4875 90° East 194 223 2,400 -968 Descending FlightAware ADS-B
Mon 05:25:58 PM 29.9932 -95.4720 90° East 185 213 2,100 -968 Descending FlightAware ADS-B
Mon 05:26:14 PM 29.9933 -95.4571 90° East 176 203 1,900 -857 Descending FlightAware ADS-B
Mon 05:26:33 PM 29.9934 -95.4392 91° East 174 200 1,600 -909 Descending FlightAware ADS-B
Mon 05:26:47 PM 29.9933 -95.4279 89° East 157 181 1,400 -828 Descending FlightAware ADS-B
Mon 05:27:02 PM 29.9934 -95.4153 89° East 154 177 1,200 -783 Descending FlightAware ADS-B
Mon 05:27:10 PM 29.9935 -95.4085 90° East 152 175 1,100 -667 Descending FlightAware ADS-B
Mon 05:27:20 PM 29.9935 -95.4011 89° East 150 173 1,000 -783 Descending FlightAware ADS-B
Mon 05:27:33 PM 29.9936 -95.3906 92° East 149 171 800 -1,000 Descending FlightAware ADS-B
Mon 05:27:38 PM 29.9935 -95.3865 91° East 149 171 700 -857 Descending FlightAware ADS-B
Mon 05:27:54 PM 29.9934 -95.3736 89° East 148 170 500 -563 Descending FlightAware ADS-B
Mon 05:28:10 PM 29.9935 -95.3613 89° East 141 162 400 -375 Descending FlightAware ADS-B

Login

Don't have an account? Register now (free) for customized features, flight alerts, and more!